createdAt,value
2023-05-13T00:02:24.523Z,80.13
2023-05-13T00:06:46.372Z,79.30
2023-05-13T00:11:08.195Z,79.22
2023-05-13T00:15:31.734Z,79.84
2023-05-13T00:19:53.438Z,80.06
2023-05-13T00:24:15.264Z,80.73
2023-05-13T00:28:37.007Z,78.56
2023-05-13T00:33:00.225Z,78.88
2023-05-13T00:37:22.064Z,79.40
2023-05-13T00:41:43.843Z,78.12
2023-05-13T00:46:05.752Z,78.32
2023-05-13T00:50:28.852Z,78.56
2023-05-13T00:54:50.564Z,78.82
2023-05-13T00:59:12.266Z,79.42
2023-05-13T01:03:42.992Z,79.67
2023-05-13T01:08:14.127Z,80.16
2023-05-13T01:12:39.544Z,80.37
2023-05-13T01:17:06.119Z,83.13
2023-05-13T01:21:29.239Z,81.76
2023-05-13T01:25:50.957Z,82.35
2023-05-13T01:30:13.476Z,83.27
2023-05-13T01:34:36.666Z,84.22
2023-05-13T01:39:01.478Z,83.52
2023-05-13T01:43:23.243Z,83.27
2023-05-13T01:47:45.052Z,83.26
2023-05-13T01:52:07.071Z,83.56
2023-05-13T01:56:30.233Z,83.55
2023-05-13T02:00:51.977Z,83.52
2023-05-13T02:05:13.691Z,82.44
2023-05-13T02:09:35.473Z,81.42
2023-05-13T02:13:58.573Z,81.94
2023-05-13T02:18:20.647Z,82.33
2023-05-13T02:22:42.358Z,81.17
2023-05-13T02:27:04.604Z,83.48
2023-05-13T02:31:27.779Z,83.21
2023-05-13T02:35:49.568Z,83.68
2023-05-13T02:40:12.212Z,82.79
2023-05-13T02:44:33.968Z,82.03
2023-05-13T02:48:57.109Z,83.22
2023-05-13T02:53:18.821Z,83.73
2023-05-13T02:57:40.561Z,84.10
2023-05-13T03:02:02.327Z,83.81
2023-05-13T03:06:25.582Z,84.15
2023-05-13T03:10:47.323Z,83.77
2023-05-13T03:15:10.257Z,83.32
2023-05-13T03:19:34.080Z,83.78
2023-05-13T03:23:57.137Z,83.87
2023-05-13T03:28:18.892Z,84.32
2023-05-13T03:32:40.778Z,84.11
2023-05-13T03:37:02.682Z,84.55
2023-05-13T03:41:25.861Z,84.29
2023-05-13T03:45:47.916Z,84.06
2023-05-13T03:50:10.051Z,83.81
2023-05-13T03:54:31.782Z,82.92
2023-05-13T03:58:54.982Z,82.80
2023-05-13T04:03:17.557Z,83.69
2023-05-13T04:07:39.519Z,82.83
2023-05-13T04:12:01.280Z,83.46
2023-05-13T04:16:24.493Z,82.62
2023-05-13T04:20:46.258Z,81.79
2023-05-13T04:25:08.986Z,82.94
2023-05-13T04:29:30.981Z,83.50
2023-05-13T04:33:54.210Z,82.99
2023-05-13T04:38:15.988Z,82.06
2023-05-13T04:42:37.737Z,82.45
2023-05-13T04:46:59.566Z,82.38
2023-05-13T04:51:22.671Z,81.51
2023-05-13T04:55:46.640Z,80.60
2023-05-13T05:00:09.607Z,79.14
2023-05-13T05:04:31.414Z,78.59
2023-05-13T05:08:54.521Z,78.27
2023-05-13T05:13:16.332Z,77.93
2023-05-13T05:17:38.171Z,75.81
2023-05-13T05:22:00.121Z,69.19
2023-05-13T05:26:23.271Z,63.69
2023-05-13T05:30:45.499Z,60.31
2023-05-13T05:35:07.993Z,55.53
2023-05-13T05:39:29.700Z,50.56
2023-05-13T05:43:52.892Z,44.30
2023-05-13T05:48:14.925Z,41.60
2023-05-13T05:52:36.740Z,39.27
2023-05-13T05:56:58.503Z,37.72
2023-05-13T06:01:21.694Z,36.16
2023-05-13T06:05:43.460Z,35.38
2023-05-13T06:10:08.342Z,34.62
2023-05-13T06:14:30.260Z,33.30
2023-05-13T06:18:53.865Z,32.88
2023-05-13T06:23:15.668Z,32.54
2023-05-13T06:27:37.618Z,32.66
2023-05-13T06:31:59.365Z,31.27
2023-05-13T06:36:22.446Z,32.28
2023-05-13T06:40:44.275Z,30.72
2023-05-13T06:45:07.772Z,31.33
2023-05-13T06:49:29.529Z,32.73
2023-05-13T06:53:52.718Z,32.20
2023-05-13T06:58:14.591Z,33.86
2023-05-13T07:02:36.374Z,31.72
2023-05-13T07:06:58.278Z,31.43
2023-05-13T07:11:21.356Z,29.61
2023-05-13T07:15:43.099Z,30.08
2023-05-13T07:20:05.757Z,29.47
2023-05-13T07:24:27.607Z,30.23
2023-05-13T07:28:50.891Z,28.92
2023-05-13T07:33:12.850Z,29.13
2023-05-13T07:37:34.682Z,29.19
2023-05-13T07:41:56.486Z,29.42
2023-05-13T07:46:19.599Z,28.32
2023-05-13T07:50:41.542Z,28.24
2023-05-13T07:55:03.609Z,28.95
2023-05-13T07:59:25.372Z,29.04
2023-05-13T08:03:48.596Z,28.02
2023-05-13T08:08:10.652Z,27.76
2023-05-13T08:12:32.507Z,27.90
2023-05-13T08:16:56.971Z,30.93
2023-05-13T08:21:20.235Z,33.04
2023-05-13T08:25:42.070Z,34.00
2023-05-13T08:30:04.160Z,33.88
2023-05-13T08:34:26.207Z,34.40
2023-05-13T08:38:49.495Z,34.24
2023-05-13T08:43:14.836Z,32.65
2023-05-13T08:47:43.922Z,34.65
2023-05-13T08:52:06.160Z,33.13
2023-05-13T08:56:29.506Z,34.41
2023-05-13T09:00:52.006Z,31.53
2023-05-13T09:05:15.239Z,30.25
2023-05-13T09:09:37.712Z,28.58
2023-05-13T09:14:03.080Z,30.22
2023-05-13T09:18:30.204Z,29.98
2023-05-13T09:22:53.916Z,31.26
2023-05-13T09:27:15.749Z,28.39
2023-05-13T09:31:38.904Z,29.23
2023-05-13T09:36:04.979Z,27.68
2023-05-13T09:40:27.013Z,27.48
2023-05-13T09:44:48.857Z,26.26
2023-05-13T09:49:12.131Z,25.84
2023-05-13T09:53:34.130Z,26.17
2023-05-13T09:57:55.953Z,25.41
2023-05-13T10:02:18.413Z,25.71
2023-05-13T10:06:41.621Z,25.34
2023-05-13T10:11:04.240Z,24.82
2023-05-13T10:15:27.172Z,25.42
2023-05-13T10:19:50.099Z,24.96
2023-05-13T10:24:13.554Z,25.02
2023-05-13T10:28:35.883Z,25.19
2023-05-13T10:33:02.936Z,25.43
2023-05-13T10:37:54.056Z,25.52
2023-05-13T10:42:39.283Z,25.59
2023-05-13T10:47:01.837Z,26.17
2023-05-13T10:51:24.908Z,25.82
2023-05-13T10:55:46.675Z,26.93
2023-05-13T11:00:12.832Z,28.52
2023-05-13T11:04:59.099Z,31.38
2023-05-13T11:09:30.670Z,30.61
2023-05-13T11:13:53.621Z,32.79
2023-05-13T11:18:15.451Z,33.20
2023-05-13T11:22:41.338Z,34.96
2023-05-13T11:27:13.837Z,33.79
2023-05-13T11:31:44.200Z,33.92
2023-05-13T11:36:07.104Z,34.84
2023-05-13T11:40:31.828Z,34.85
2023-05-13T11:44:54.340Z,35.63
2023-05-13T11:49:30.662Z,37.87
2023-05-13T11:53:59.254Z,40.86
2023-05-13T11:58:22.405Z,43.43
2023-05-13T12:02:44.409Z,46.29
2023-05-13T12:07:06.374Z,50.12
2023-05-13T12:11:28.362Z,49.37
2023-05-13T12:15:52.116Z,49.46
2023-05-13T12:20:15.828Z,48.59
2023-05-13T12:24:37.537Z,47.98
2023-05-13T12:28:59.481Z,47.87
2023-05-13T12:33:24.072Z,43.96
2023-05-13T12:37:59.070Z,40.37
2023-05-13T12:42:20.821Z,45.34
2023-05-13T12:46:50.126Z,40.49
2023-05-13T12:51:13.470Z,38.10
2023-05-13T12:55:35.234Z,39.27
2023-05-13T12:59:57.044Z,39.32
2023-05-13T13:04:18.878Z,39.13
2023-05-13T13:08:42.066Z,38.57
2023-05-13T13:13:03.801Z,38.34
2023-05-13T13:17:25.535Z,38.86
2023-05-13T13:21:47.315Z,36.72
2023-05-13T13:26:10.502Z,35.17
2023-05-13T13:30:32.332Z,34.04
2023-05-13T13:34:54.057Z,33.82
2023-05-13T13:39:15.824Z,31.18
2023-05-13T13:43:39.066Z,31.97
2023-05-13T13:48:00.871Z,36.25
2023-05-13T13:52:22.625Z,33.75
2023-05-13T13:56:44.510Z,36.88
2023-05-13T14:01:07.692Z,35.98
2023-05-13T14:05:29.493Z,35.10
2023-05-13T14:09:51.318Z,35.63
2023-05-13T14:14:13.165Z,36.51
2023-05-13T14:18:36.317Z,36.69
2023-05-13T14:22:58.089Z,37.05
2023-05-13T14:27:20.681Z,36.91
2023-05-13T14:31:42.434Z,36.55
2023-05-13T14:36:06.489Z,38.82
2023-05-13T14:40:28.506Z,36.93
2023-05-13T14:44:50.228Z,36.52
2023-05-13T14:49:12.221Z,36.61
2023-05-13T14:53:35.318Z,36.48
2023-05-13T14:57:57.145Z,36.98
2023-05-13T15:02:18.913Z,38.33
2023-05-13T15:06:40.677Z,42.95
2023-05-13T15:11:04.284Z,43.10
2023-05-13T15:15:26.041Z,42.95
2023-05-13T15:19:49.268Z,41.93
2023-05-13T15:24:11.068Z,41.94
2023-05-13T15:28:34.363Z,41.79
2023-05-13T15:32:56.376Z,41.96
2023-05-13T15:37:18.408Z,39.81
2023-05-13T15:41:40.123Z,39.34
2023-05-13T15:46:03.988Z,38.66
2023-05-13T15:50:25.839Z,38.41
2023-05-13T15:54:47.640Z,37.78
2023-05-13T15:59:09.408Z,37.14
2023-05-13T16:03:32.669Z,36.80
2023-05-13T16:07:54.503Z,37.15
2023-05-13T16:12:16.262Z,37.27
2023-05-13T16:16:38.440Z,37.95
2023-05-13T16:21:01.622Z,37.93
2023-05-13T16:25:24.865Z,38.15
2023-05-13T16:29:46.741Z,37.24
2023-05-13T16:34:08.484Z,36.98
2023-05-13T16:38:31.599Z,37.71
2023-05-13T16:42:53.377Z,38.24
2023-05-13T16:47:15.177Z,38.61
2023-05-13T16:51:37.189Z,39.39
2023-05-13T16:56:00.416Z,40.66
2023-05-13T17:00:22.507Z,43.80
2023-05-13T17:04:44.618Z,40.88
2023-05-13T17:09:06.438Z,41.64
2023-05-13T17:13:30.620Z,44.19
2023-05-13T17:17:52.458Z,42.72
2023-05-13T17:22:14.321Z,42.20
2023-05-13T17:26:38.437Z,43.36
2023-05-13T17:31:02.185Z,41.34
2023-05-13T17:35:24.028Z,46.08
2023-05-13T17:39:45.887Z,45.30
2023-05-13T17:44:07.621Z,46.83
2023-05-13T17:48:30.994Z,46.40
2023-05-13T17:52:52.878Z,47.68
2023-05-13T17:57:14.634Z,47.29
2023-05-13T18:01:36.425Z,48.12
2023-05-13T18:05:59.914Z,43.96
2023-05-13T18:10:21.893Z,44.96
2023-05-13T18:14:43.806Z,45.05
2023-05-13T18:19:05.611Z,45.54
2023-05-13T18:23:29.006Z,47.74
2023-05-13T18:27:50.924Z,49.28
2023-05-13T18:32:12.775Z,48.06
2023-05-13T18:36:34.650Z,48.10
2023-05-13T18:40:57.843Z,48.21
2023-05-13T18:45:19.679Z,50.19
2023-05-13T18:49:41.409Z,52.17
2023-05-13T18:54:04.575Z,52.62
2023-05-13T18:58:27.722Z,54.03
2023-05-13T19:02:49.563Z,53.23
2023-05-13T19:07:11.416Z,53.61
2023-05-13T19:11:33.178Z,54.04
2023-05-13T19:15:56.437Z,53.63
2023-05-13T19:20:18.427Z,56.25
2023-05-13T19:24:40.200Z,57.33
2023-05-13T19:29:02.097Z,59.65
2023-05-13T19:33:25.232Z,59.99
2023-05-13T19:37:47.277Z,58.38
2023-05-13T19:42:09.085Z,58.98
2023-05-13T19:46:31.299Z,58.70
2023-05-13T19:50:54.469Z,59.27
2023-05-13T19:55:16.485Z,59.44
2023-05-13T19:59:38.310Z,59.49
2023-05-13T20:04:00.118Z,58.49
2023-05-13T20:08:23.429Z,59.91
2023-05-13T20:12:45.224Z,62.39
2023-05-13T20:17:06.978Z,60.33
2023-05-13T20:21:28.760Z,64.11
2023-05-13T20:25:51.955Z,63.33
2023-05-13T20:30:14.653Z,65.94
2023-05-13T20:34:36.639Z,64.44
2023-05-13T20:38:58.430Z,65.05
2023-05-13T20:43:21.524Z,64.13
2023-05-13T20:47:43.277Z,64.34
2023-05-13T20:52:08.501Z,65.43
2023-05-13T20:56:31.283Z,65.88
2023-05-13T21:00:54.493Z,65.94
2023-05-13T21:05:16.256Z,64.88
2023-05-13T21:09:39.819Z,66.00
2023-05-13T21:14:01.597Z,65.89
2023-05-13T21:18:25.125Z,66.58
2023-05-13T21:22:46.925Z,67.38
2023-05-13T21:27:08.797Z,67.41
2023-05-13T21:31:30.678Z,67.61
2023-05-13T21:35:54.207Z,69.26
2023-05-13T21:40:16.404Z,67.63
2023-05-13T21:44:38.451Z,69.07
2023-05-13T21:49:01.255Z,69.56
2023-05-13T21:53:24.339Z,70.25
2023-05-13T21:57:47.449Z,70.99
2023-05-13T22:02:09.296Z,72.31
2023-05-13T22:06:31.143Z,72.15
2023-05-13T22:10:54.349Z,72.98
2023-05-13T22:15:16.162Z,72.17
2023-05-13T22:19:38.052Z,71.45
2023-05-13T22:23:59.859Z,70.90
2023-05-13T22:28:22.941Z,71.09
2023-05-13T22:32:44.927Z,71.34
2023-05-13T22:37:06.710Z,71.50
2023-05-13T22:41:28.451Z,72.00
2023-05-13T22:45:51.507Z,70.79
2023-05-13T22:50:13.298Z,71.60
2023-05-13T22:54:34.994Z,72.26
2023-05-13T22:58:56.778Z,73.02
2023-05-13T23:03:19.861Z,71.77
2023-05-13T23:07:41.592Z,73.18
2023-05-13T23:12:03.677Z,73.91
2023-05-13T23:16:25.654Z,73.11
2023-05-13T23:20:50.657Z,73.54
2023-05-13T23:25:12.966Z,74.17
2023-05-13T23:29:34.764Z,74.12
2023-05-13T23:33:56.768Z,74.23
2023-05-13T23:38:19.931Z,75.18
2023-05-13T23:42:41.800Z,74.10
2023-05-13T23:47:03.684Z,74.56
2023-05-13T23:51:25.426Z,73.77
2023-05-13T23:55:48.617Z,74.33
